createdAt,value
2018-02-24T00:00:30.292Z,83.61
2018-02-24T00:01:30.268Z,83.51
2018-02-24T00:02:30.260Z,83.51
2018-02-24T00:03:30.238Z,83.7
2018-02-24T00:04:30.213Z,83.8
2018-02-24T00:05:30.189Z,83.8
2018-02-24T00:06:30.172Z,83.89
2018-02-24T00:07:30.156Z,83.89
2018-02-24T00:08:29.873Z,83.8
2018-02-24T00:09:30.112Z,84.27
2018-02-24T00:10:30.105Z,83.89
2018-02-24T00:11:30.084Z,84.55
2018-02-24T00:12:30.098Z,84.55
2018-02-24T00:13:30.037Z,84.27
2018-02-24T00:14:30.039Z,84.55
2018-02-24T00:15:30.002Z,84.55
2018-02-24T00:16:29.990Z,84.27
2018-02-24T00:17:29.962Z,84.36
2018-02-24T00:18:29.950Z,84.74
2018-02-24T00:19:29.923Z,84.64
2018-02-24T00:20:29.901Z,84.92
2018-02-24T00:21:29.881Z,84.64
2018-02-24T00:22:29.863Z,84.45
2018-02-24T00:23:29.839Z,85.21
2018-02-24T00:24:29.830Z,85.02
2018-02-24T00:25:29.806Z,85.21
2018-02-24T00:26:29.789Z,85.3
2018-02-24T00:27:29.770Z,84.83
2018-02-24T00:28:29.755Z,85.3
2018-02-24T00:29:29.726Z,85.49
2018-02-24T00:30:29.713Z,85.49
2018-02-24T00:31:29.439Z,85.21
2018-02-24T00:32:29.671Z,85.96
2018-02-24T00:33:29.652Z,85.96
2018-02-24T00:34:29.629Z,85.77
2018-02-24T00:35:29.614Z,85.77
2018-02-24T00:36:29.590Z,86.25
2018-02-24T00:37:29.570Z,85.87
2018-02-24T00:38:29.557Z,86.15
2018-02-24T00:39:29.529Z,86.06
2018-02-24T00:40:29.510Z,86.34
2018-02-24T00:41:29.522Z,86.25
2018-02-24T00:42:29.495Z,86.44
2018-02-24T00:43:29.462Z,86.91
2018-02-24T00:44:29.440Z,86.63
2018-02-24T00:45:29.414Z,86.91
2018-02-24T00:46:29.396Z,86.44
2018-02-24T00:47:29.377Z,86.91
2018-02-24T00:48:29.356Z,87.19
2018-02-24T00:49:29.343Z,87.1
2018-02-24T00:50:29.327Z,86.91
2018-02-24T00:51:29.297Z,86.91
2018-02-24T00:52:29.286Z,87.19
2018-02-24T00:53:29.259Z,87.38
2018-02-24T00:54:29.242Z,87.57
2018-02-24T00:55:29.220Z,87.66
2018-02-24T00:56:29.217Z,87.66
2018-02-24T00:57:29.189Z,87.66
2018-02-24T00:58:29.167Z,87.48
2018-02-24T00:59:29.141Z,87.66
2018-02-24T01:00:28.872Z,87.48
2018-02-24T01:01:29.102Z,87.48
2018-02-24T01:02:29.095Z,87.57
2018-02-24T01:03:29.077Z,87.76
2018-02-24T01:04:29.056Z,87.95
2018-02-24T01:05:29.027Z,87.76
2018-02-24T01:06:29.017Z,87.76
2018-02-24T01:07:28.993Z,87.48
2018-02-24T01:08:28.981Z,87.57
2018-02-24T01:09:28.952Z,87.66
2018-02-24T01:10:28.931Z,87.66
2018-02-24T01:11:28.917Z,87.57
2018-02-24T01:12:28.894Z,87.66
2018-02-24T01:13:28.870Z,87.57
2018-02-24T01:14:28.600Z,86.91
2018-02-24T01:15:28.832Z,87.66
2018-02-24T01:16:28.860Z,87.38
2018-02-24T01:17:28.797Z,87.48
2018-02-24T01:18:28.774Z,87.76
2018-02-24T01:19:28.752Z,87.29
2018-02-24T01:20:28.747Z,87.19
2018-02-24T01:21:28.727Z,87.85
2018-02-24T01:22:28.703Z,87.85
2018-02-24T01:23:28.678Z,87.85
2018-02-24T01:24:28.398Z,87.38
2018-02-24T01:25:28.652Z,87.95
2018-02-24T01:26:28.629Z,88.32
2018-02-24T01:27:28.615Z,88.04
2018-02-24T01:28:28.593Z,88.04
2018-02-24T01:29:28.308Z,88.04
2018-02-24T01:30:28.545Z,88.13
2018-02-24T01:31:28.523Z,87.95
2018-02-24T01:32:28.512Z,88.32
2018-02-24T01:33:28.494Z,88.7
2018-02-24T01:34:28.463Z,88.6
2018-02-24T01:35:28.460Z,88.6
2018-02-24T01:36:28.434Z,88.7
2018-02-24T01:37:28.404Z,88.42
2018-02-24T01:38:28.402Z,88.42
2018-02-24T01:39:28.380Z,88.51
2018-02-24T01:40:28.347Z,88.7
2018-02-24T01:41:28.350Z,88.7
2018-02-24T01:42:28.344Z,89.08
2018-02-24T01:43:28.291Z,89.08
2018-02-24T01:44:28.280Z,89.08
2018-02-24T01:45:28.266Z,88.89
2018-02-24T01:46:28.232Z,89.08
2018-02-24T01:47:27.952Z,88.7
2018-02-24T01:48:28.209Z,88.7
2018-02-24T01:49:28.442Z,88.89
2018-02-24T01:50:27.894Z,88.98
2018-02-24T01:51:28.136Z,88.98
2018-02-24T01:52:28.125Z,89.27
2018-02-24T01:53:28.106Z,89.08
2018-02-24T01:54:28.074Z,89.08
2018-02-24T01:55:28.063Z,89.08
2018-02-24T01:56:28.036Z,89.17
2018-02-24T01:57:28.023Z,88.42
2018-02-24T01:58:28.002Z,89.08
2018-02-24T01:59:27.975Z,89.17
2018-02-24T02:00:27.956Z,89.27
2018-02-24T02:01:27.941Z,89.27
2018-02-24T02:02:27.925Z,89.17
2018-02-24T02:03:27.897Z,89.83
2018-02-24T02:04:27.890Z,89.08
2018-02-24T02:05:27.866Z,89.08
2018-02-24T02:06:27.840Z,88.89
2018-02-24T02:07:27.821Z,89.27
2018-02-24T02:08:27.546Z,89.08
2018-02-24T02:09:27.534Z,88.89
2018-02-24T02:10:27.764Z,88.98
2018-02-24T02:11:27.753Z,89.08
2018-02-24T02:12:27.730Z,89.27
2018-02-24T02:13:27.447Z,89.36
2018-02-24T02:14:27.686Z,88.42
2018-02-24T02:15:27.668Z,89.08
2018-02-24T02:16:27.646Z,88.93
2018-02-24T02:17:27.638Z,88.75
2018-02-24T02:18:27.610Z,88.09
2018-02-24T02:19:27.335Z,88.37
2018-02-24T02:20:27.820Z,87.99
2018-02-24T02:21:27.549Z,87.71
2018-02-24T02:22:27.535Z,87.52
2018-02-24T02:23:27.522Z,86.67
2018-02-24T02:24:27.236Z,86.76
2018-02-24T02:25:27.484Z,86.67
2018-02-24T02:26:27.472Z,86.38
2018-02-24T02:27:27.446Z,85.91
2018-02-24T02:28:27.435Z,85.91
2018-02-24T02:29:27.409Z,85.49
2018-02-24T02:30:27.397Z,85.2
2018-02-24T02:31:27.370Z,85.01
2018-02-24T02:32:27.355Z,84.73
2018-02-24T02:33:27.068Z,84.73
2018-02-24T02:34:27.329Z,84.26
2018-02-24T02:35:27.294Z,84.16
2018-02-24T02:36:27.273Z,83.97
2018-02-24T02:37:27.260Z,84.26
2018-02-24T02:38:27.238Z,83.4
2018-02-24T02:39:27.215Z,83.4
2018-02-24T02:40:27.202Z,83.4
2018-02-24T02:41:27.186Z,83.59
2018-02-24T02:42:27.168Z,83.5
2018-02-24T02:43:27.153Z,83.4
2018-02-24T02:44:26.874Z,83.5
2018-02-24T02:45:27.114Z,84.07
2018-02-24T02:46:27.088Z,83.59
2018-02-24T02:47:27.071Z,83.97
2018-02-24T02:48:27.054Z,84.07
2018-02-24T02:49:26.775Z,84.07
2018-02-24T02:50:27.019Z,84.16
2018-02-24T02:51:27.010Z,83.78
2018-02-24T02:52:26.983Z,83.88
2018-02-24T02:53:26.962Z,83.78
2018-02-24T02:54:26.949Z,83.69
2018-02-24T02:55:26.937Z,83.88
2018-02-24T02:56:26.909Z,83.88
2018-02-24T02:57:26.892Z,83.78
2018-02-24T02:58:26.880Z,83.59
2018-02-24T02:59:26.601Z,83.45
2018-02-24T03:00:26.846Z,83.45
2018-02-24T03:01:26.818Z,82.6
2018-02-24T03:02:26.806Z,82.03
2018-02-24T03:03:26.792Z,82.5
2018-02-24T03:04:26.781Z,81.65
2018-02-24T03:05:26.750Z,81.74
2018-02-24T03:06:26.749Z,81.27
2018-02-24T03:07:26.724Z,81.56
2018-02-24T03:08:26.706Z,80.9
2018-02-24T03:09:26.685Z,81.27
2018-02-24T03:10:26.670Z,81.56
2018-02-24T03:11:26.647Z,81.14
2018-02-24T03:12:26.635Z,80.95
2018-02-24T03:13:27.105Z,81.33
2018-02-24T03:14:26.588Z,81.8
2018-02-24T03:15:26.583Z,81.71
2018-02-24T03:16:26.555Z,82.65
2018-02-24T03:17:26.560Z,82.65
2018-02-24T03:18:26.561Z,82.37
2018-02-24T03:19:26.247Z,82.65
2018-02-24T03:20:26.486Z,83.22
2018-02-24T03:21:26.471Z,83.22
2018-02-24T03:22:26.456Z,83.4
2018-02-24T03:23:26.442Z,83.31
2018-02-24T03:24:26.467Z,82.84
2018-02-24T03:25:26.395Z,83.03
2018-02-24T03:26:26.386Z,82.65
2018-02-24T03:27:26.362Z,83.03
2018-02-24T03:28:26.351Z,83.5
2018-02-24T03:29:26.321Z,83.5
2018-02-24T03:30:26.310Z,83.59
2018-02-24T03:31:26.383Z,83.22
2018-02-24T03:32:26.292Z,82.84
2018-02-24T03:33:26.266Z,82.46
2018-02-24T03:34:25.981Z,83.4
2018-02-24T03:35:25.957Z,83.4
2018-02-24T03:36:26.213Z,84.07
2018-02-24T03:37:26.181Z,84.73
2018-02-24T03:38:26.167Z,84.73
2018-02-24T03:39:26.148Z,85.3
2018-02-24T03:40:26.137Z,85.2
2018-02-24T03:41:25.851Z,85.39
2018-02-24T03:42:26.094Z,86.05
2018-02-24T03:43:26.081Z,86.24
2018-02-24T03:44:26.074Z,86.05
2018-02-24T03:45:26.040Z,85.86
2018-02-24T03:46:26.032Z,86.43
2018-02-24T03:47:26.004Z,87.28
2018-02-24T03:48:25.995Z,88.13
2018-02-24T03:49:25.966Z,87.94
2018-02-24T03:50:25.961Z,87.75
2018-02-24T03:51:25.941Z,87.28
2018-02-24T03:52:25.916Z,86.33
2018-02-24T03:53:25.895Z,86.15
2018-02-24T03:54:25.888Z,85.39
2018-02-24T03:55:25.869Z,85.39
2018-02-24T03:56:25.843Z,86.24
2018-02-24T03:57:25.824Z,86.15
2018-02-24T03:58:25.555Z,85.58
2018-02-24T03:59:25.799Z,86.15
2018-02-24T04:00:25.777Z,86.43
2018-02-24T04:01:25.756Z,86.33
2018-02-24T04:02:25.737Z,86.62
2018-02-24T04:03:25.726Z,86.47
2018-02-24T04:04:25.702Z,86.57
2018-02-24T04:05:25.689Z,86.38
2018-02-24T04:06:25.671Z,87.04
2018-02-24T04:07:25.648Z,86.57
2018-02-24T04:08:25.632Z,86.94
2018-02-24T04:09:25.621Z,86.38
2018-02-24T04:10:25.597Z,85.53
2018-02-24T04:11:25.591Z,86.1
2018-02-24T04:12:25.311Z,86.29
2018-02-24T04:13:25.543Z,86.47
2018-02-24T04:14:25.530Z,86.19
2018-02-24T04:15:25.507Z,85.53
2018-02-24T04:16:25.588Z,85.34
2018-02-24T04:17:25.471Z,85.15
2018-02-24T04:18:25.457Z,84.77
2018-02-24T04:19:25.438Z,84.58
2018-02-24T04:20:25.435Z,84.68
2018-02-24T04:21:25.410Z,85.15
2018-02-24T04:22:25.389Z,85.24
2018-02-24T04:23:25.378Z,84.68
2018-02-24T04:24:25.353Z,85.15
2018-02-24T04:25:25.082Z,85.24
2018-02-24T04:26:25.326Z,84.77
2018-02-24T04:27:25.312Z,84.77
2018-02-24T04:28:25.285Z,84.96
2018-02-24T04:29:25.264Z,85.15
2018-02-24T04:30:25.259Z,84.68
2018-02-24T04:31:25.232Z,84.86
2018-02-24T04:32:25.214Z,84.86
2018-02-24T04:33:25.197Z,85.43
2018-02-24T04:34:25.183Z,85.24
2018-02-24T04:35:25.161Z,85.62
2018-02-24T04:36:25.154Z,85.62
2018-02-24T04:37:25.130Z,85.91
2018-02-24T04:38:24.858Z,86.1
2018-02-24T04:39:25.102Z,85.91
2018-02-24T04:40:25.084Z,86.1
2018-02-24T04:41:25.070Z,85.81
2018-02-24T04:42:25.043Z,86
2018-02-24T04:43:25.026Z,86.19
2018-02-24T04:44:25.015Z,86.1
2018-02-24T04:45:24.988Z,86.19
2018-02-24T04:46:24.976Z,85.91
2018-02-24T04:47:24.957Z,86.38
2018-02-24T04:48:24.937Z,86.57
2018-02-24T04:49:24.934Z,86.76
2018-02-24T04:50:24.904Z,87.04
2018-02-24T04:51:24.893Z,86.94
2018-02-24T04:52:24.610Z,87.23
2018-02-24T04:53:24.850Z,87.79
2018-02-24T04:54:24.580Z,87.51
2018-02-24T04:55:24.826Z,87.79
2018-02-24T04:56:24.809Z,88.17
2018-02-24T04:57:24.526Z,87.98
2018-02-24T04:58:24.767Z,88.74
2018-02-24T04:59:24.754Z,88.93
2018-02-24T05:00:24.736Z,89.12
2018-02-24T05:01:24.713Z,89.45
2018-02-24T05:02:24.695Z,89.07
2018-02-24T05:03:24.682Z,89.26
2018-02-24T05:04:24.663Z,89.78
2018-02-24T05:05:24.652Z,90.06
2018-02-24T05:06:24.368Z,89.59
2018-02-24T05:07:24.616Z,89.59
2018-02-24T05:08:24.594Z,89.97
2018-02-24T05:09:24.576Z,90.35
2018-02-24T05:10:24.567Z,90.06
2018-02-24T05:11:24.539Z,90.25
2018-02-24T05:12:24.520Z,90.91
2018-02-24T05:13:24.500Z,91.2
2018-02-24T05:14:24.491Z,90.35
2018-02-24T05:15:24.475Z,90.91
2018-02-24T05:16:24.448Z,90.82
2018-02-24T05:17:24.445Z,91.29
2018-02-24T05:18:24.414Z,91.48
2018-02-24T05:19:24.408Z,91.1
2018-02-24T05:20:24.391Z,91.48
2018-02-24T05:21:24.364Z,91.77
2018-02-24T05:22:24.354Z,92.33
2018-02-24T05:23:24.329Z,92.52
2018-02-24T05:24:24.312Z,92.52
2018-02-24T05:25:24.294Z,93.47
2018-02-24T05:26:24.275Z,93.47
2018-02-24T05:27:24.274Z,94.22
2018-02-24T05:28:24.261Z,93.75
2018-02-24T05:29:24.223Z,94.03
2018-02-24T05:30:24.205Z,93.84
2018-02-24T05:31:24.189Z,93.84
2018-02-24T05:32:24.177Z,94.22
2018-02-24T05:33:24.163Z,93.84
2018-02-24T05:34:24.144Z,94.22
2018-02-24T05:35:24.126Z,94.41
2018-02-24T05:36:24.122Z,94.7
2018-02-24T05:37:24.091Z,94.6
2018-02-24T05:38:24.068Z,94.51
2018-02-24T05:39:24.048Z,94.98
2018-02-24T05:40:24.033Z,95.07
2018-02-24T05:41:24.017Z,95.45
2018-02-24T05:42:23.996Z,95.26
2018-02-24T05:43:24.031Z,95.45
2018-02-24T05:44:23.967Z,95.26
2018-02-24T05:45:23.945Z,95.26
2018-02-24T05:46:23.924Z,95.26
2018-02-24T05:47:23.906Z,95.83
2018-02-24T05:48:23.897Z,96.11
2018-02-24T05:49:23.880Z,95.64
2018-02-24T05:50:23.862Z,95.92
2018-02-24T05:51:23.847Z,96.4
2018-02-24T05:52:23.829Z,95.92
2018-02-24T05:53:23.802Z,96.21
2018-02-24T05:54:23.792Z,96.11
2018-02-24T05:55:23.519Z,96.49
2018-02-24T05:56:23.757Z,96.3
2018-02-24T05:57:23.732Z,96.3
2018-02-24T05:58:23.726Z,96.4
2018-02-24T05:59:23.709Z,96.4
2018-02-24T06:00:23.687Z,96.49
2018-02-24T06:01:23.662Z,96.49
2018-02-24T06:02:23.653Z,96.4
2018-02-24T06:03:23.635Z,96.96
2018-02-24T06:04:23.614Z,96.78
2018-02-24T06:05:23.594Z,96.87
2018-02-24T06:06:23.583Z,97.15
2018-02-24T06:07:23.569Z,97.29
2018-02-24T06:08:23.537Z,97.48
2018-02-24T06:09:23.519Z,98.05
2018-02-24T06:10:23.511Z,98.43
2018-02-24T06:11:23.486Z,98.05
2018-02-24T06:12:23.208Z,97.96
2018-02-24T06:13:23.458Z,98.05
2018-02-24T06:14:23.444Z,98.99
2018-02-24T06:15:23.161Z,98.8
2018-02-24T06:16:23.424Z,98.9
2018-02-24T06:17:23.393Z,98.8
2018-02-24T06:18:23.363Z,98.9
2018-02-24T06:19:23.348Z,98.99
2018-02-24T06:20:23.326Z,99.56
2018-02-24T06:21:23.308Z,99.46
2018-02-24T06:22:23.295Z,99.56
2018-02-24T06:23:23.277Z,99.37
2018-02-24T06:24:23.260Z,99.37
2018-02-24T06:25:23.246Z,98.99
2018-02-24T06:26:23.217Z,99.18
2018-02-24T06:27:23.204Z,99.08
2018-02-24T06:28:23.183Z,98.9
2018-02-24T06:29:23.177Z,99.75
2018-02-24T06:30:23.148Z,99.84
2018-02-24T06:31:23.144Z,99.99
2018-02-24T06:32:23.123Z,99.75
2018-02-24T06:33:22.835Z,99.84
2018-02-24T06:34:23.087Z,99.99
2018-02-24T06:35:23.064Z,99.84
2018-02-24T06:36:23.045Z,99.99
2018-02-24T06:37:23.023Z,99.99
2018-02-24T06:38:23.007Z,99.99
2018-02-24T06:39:23.000Z,99.99
2018-02-24T06:40:22.981Z,99.46
2018-02-24T06:41:22.700Z,99.99
2018-02-24T06:42:22.941Z,99.84
2018-02-24T06:43:22.918Z,99.8
2018-02-24T06:44:22.905Z,99.14
2018-02-24T06:45:22.629Z,99.23
2018-02-24T06:46:22.860Z,98.57
2018-02-24T06:47:22.852Z,98
2018-02-24T06:48:22.827Z,97.91
2018-02-24T06:49:22.813Z,97.15
2018-02-24T06:50:22.792Z,96.59
2018-02-24T06:51:22.785Z,96.4
2018-02-24T06:52:22.773Z,95.36
2018-02-24T06:53:22.746Z,94.6
2018-02-24T06:54:22.733Z,94.89
2018-02-24T06:55:22.707Z,93.94
2018-02-24T06:56:22.690Z,93.66
2018-02-24T06:57:22.688Z,93.09
2018-02-24T06:58:22.667Z,92.14
2018-02-24T06:59:22.647Z,91.29
2018-02-24T07:00:22.631Z,90.82
2018-02-24T07:01:22.611Z,91.15
2018-02-24T07:02:22.612Z,91.15
2018-02-24T07:03:22.589Z,90.39
2018-02-24T07:04:22.566Z,90.01
2018-02-24T07:05:22.558Z,89.64
2018-02-24T07:06:22.545Z,88.31
2018-02-24T07:07:22.539Z,88.22
2018-02-24T07:08:22.512Z,87.55
2018-02-24T07:09:22.516Z,88.03
2018-02-24T07:10:22.473Z,88.03
2018-02-24T07:11:22.467Z,87.46
2018-02-24T07:12:22.186Z,86.9
2018-02-24T07:13:22.440Z,86.71
2018-02-24T07:14:22.429Z,86.9
2018-02-24T07:15:22.408Z,86.61
2018-02-24T07:16:22.388Z,86.52
2018-02-24T07:17:22.382Z,86.14
2018-02-24T07:18:22.480Z,85.57
2018-02-24T07:19:22.342Z,83.97
2018-02-24T07:20:22.335Z,83.59
2018-02-24T07:21:22.326Z,82.83
2018-02-24T07:22:22.300Z,82.87
2018-02-24T07:23:22.296Z,82.02
2018-02-24T07:24:22.268Z,81.26
2018-02-24T07:25:22.269Z,81.64
2018-02-24T07:26:22.262Z,80.79
2018-02-24T07:27:22.231Z,80.98
2018-02-24T07:28:22.227Z,80.13
2018-02-24T07:29:22.239Z,79.66
2018-02-24T07:30:22.192Z,78.71
2018-02-24T07:31:22.175Z,78.52
2018-02-24T07:32:22.158Z,78.61
2018-02-24T07:33:22.160Z,78.05
2018-02-24T07:34:22.138Z,76.91
2018-02-24T07:35:22.126Z,76.63
2018-02-24T07:36:22.107Z,76.15
2018-02-24T07:37:22.093Z,75.96
2018-02-24T07:38:22.077Z,75.49
2018-02-24T07:39:22.074Z,75.12
2018-02-24T07:40:22.052Z,74.64
2018-02-24T07:41:22.047Z,74.74
2018-02-24T07:42:22.027Z,74.26
2018-02-24T07:43:22.017Z,74.83
2018-02-24T07:44:22.009Z,74.55
2018-02-24T07:45:21.984Z,75.12
2018-02-24T07:46:21.976Z,74.45
2018-02-24T07:47:21.959Z,74.64
2018-02-24T07:48:21.942Z,74.13
2018-02-24T07:49:21.676Z,74.64
2018-02-24T07:50:21.912Z,73.69
2018-02-24T07:51:21.910Z,73.66
2018-02-24T07:52:21.892Z,73.28
2018-02-24T07:53:21.874Z,73.94
2018-02-24T07:54:21.862Z,73.66
2018-02-24T07:55:21.854Z,74.69
2018-02-24T07:56:21.840Z,74.98
2018-02-24T07:57:21.561Z,74.88
2018-02-24T07:58:21.804Z,74.22
2018-02-24T07:59:21.801Z,74.6
2018-02-24T08:00:21.520Z,74.32
2018-02-24T08:01:21.762Z,74.51
2018-02-24T08:02:21.750Z,74.41
2018-02-24T08:03:21.477Z,74.79
2018-02-24T08:04:21.806Z,74.04
2018-02-24T08:05:21.701Z,73.47
2018-02-24T08:06:21.438Z,73.47
2018-02-24T08:07:21.679Z,73.47
2018-02-24T08:08:21.702Z,72.62
2018-02-24T08:09:21.644Z,72.71
2018-02-24T08:10:21.626Z,72.96
2018-02-24T08:11:21.619Z,72.02
2018-02-24T08:12:21.604Z,72.02
2018-02-24T08:13:21.321Z,72.77
2018-02-24T08:14:21.574Z,72.96
2018-02-24T08:15:21.558Z,73.05
2018-02-24T08:16:21.545Z,72.67
2018-02-24T08:17:21.547Z,72.86
2018-02-24T08:18:21.505Z,72.77
2018-02-24T08:19:21.487Z,72.2
2018-02-24T08:20:21.216Z,70.97
2018-02-24T08:21:21.195Z,70.69
2018-02-24T08:22:21.435Z,70.5
2018-02-24T08:23:21.425Z,70.78
2018-02-24T08:24:21.404Z,69.84
2018-02-24T08:25:21.383Z,69.37
2018-02-24T08:26:21.381Z,69.65
2018-02-24T08:27:21.355Z,68.23
2018-02-24T08:28:21.342Z,68.42
2018-02-24T08:29:21.327Z,68.61
2018-02-24T08:30:21.309Z,68.9
2018-02-24T08:31:21.290Z,67.76
2018-02-24T08:32:21.313Z,66.82
2018-02-24T08:33:21.252Z,66.28
2018-02-24T08:34:21.245Z,66.16
2018-02-24T08:35:21.221Z,66.38
2018-02-24T08:36:21.202Z,66.35
2018-02-24T08:37:21.197Z,65.62
2018-02-24T08:38:21.172Z,65.02
2018-02-24T08:39:21.240Z,64.39
2018-02-24T08:40:21.138Z,63.64
2018-02-24T08:41:21.130Z,62.78
2018-02-24T08:42:21.125Z,62.59
2018-02-24T08:43:21.087Z,62.59
2018-02-24T08:44:21.083Z,62.59
2018-02-24T08:45:21.056Z,63.16
2018-02-24T08:46:21.056Z,63.73
2018-02-24T08:47:21.025Z,62.97
2018-02-24T08:48:21.014Z,63.26
2018-02-24T08:49:20.994Z,63.92
2018-02-24T08:50:20.975Z,63.16
2018-02-24T08:51:20.960Z,63.45
2018-02-24T08:52:20.942Z,64.48
2018-02-24T08:53:20.925Z,64.11
2018-02-24T08:54:20.915Z,63.35
2018-02-24T08:55:20.635Z,63.16
2018-02-24T08:56:20.875Z,63.07
2018-02-24T08:57:20.865Z,62.12
2018-02-24T08:58:20.590Z,62.4
2018-02-24T08:59:20.569Z,62.5
2018-02-24T09:00:20.549Z,62.88
2018-02-24T09:01:20.792Z,62.97
2018-02-24T09:02:20.775Z,63.16
2018-02-24T09:03:20.759Z,62.88
2018-02-24T09:04:20.754Z,63.45
2018-02-24T09:05:20.731Z,62.97
2018-02-24T09:06:20.723Z,62.78
2018-02-24T09:07:20.701Z,62.78
2018-02-24T09:08:20.687Z,62.31
2018-02-24T09:09:20.668Z,62.69
2018-02-24T09:10:20.643Z,62.88
2018-02-24T09:11:20.639Z,63.26
2018-02-24T09:12:20.619Z,62.69
2018-02-24T09:13:20.610Z,62.4
2018-02-24T09:14:20.591Z,62.88
2018-02-24T09:15:20.581Z,62.59
2018-02-24T09:16:20.555Z,62.4
2018-02-24T09:17:20.535Z,61.83
2018-02-24T09:18:20.518Z,61.74
2018-02-24T09:19:20.510Z,62.21
2018-02-24T09:20:20.484Z,62.5
2018-02-24T09:21:20.479Z,62.69
2018-02-24T09:22:20.467Z,62.02
2018-02-24T09:23:20.449Z,62.5
2018-02-24T09:24:20.423Z,62.78
2018-02-24T09:25:20.490Z,62.4
2018-02-24T09:26:20.391Z,62.97
2018-02-24T09:27:20.392Z,63.16
2018-02-24T09:28:20.105Z,62.5
2018-02-24T09:29:20.093Z,62.31
2018-02-24T09:30:20.336Z,62.31
2018-02-24T09:31:20.312Z,61.74
2018-02-24T09:32:20.310Z,61.65
2018-02-24T09:33:20.300Z,61.93
2018-02-24T09:34:20.276Z,62.02
2018-02-24T09:35:20.270Z,62.12
2018-02-24T09:36:20.234Z,62.31
2018-02-24T09:37:20.225Z,62.31
2018-02-24T09:38:20.221Z,62.4
2018-02-24T09:39:20.188Z,62.5
2018-02-24T09:40:20.187Z,62.97
2018-02-24T09:41:19.907Z,62.97
2018-02-24T09:42:20.141Z,63.26
2018-02-24T09:43:19.865Z,63.64
2018-02-24T09:44:20.115Z,63.35
2018-02-24T09:45:20.100Z,64.11
2018-02-24T09:46:20.148Z,64.01
2018-02-24T09:47:20.062Z,63.82
2018-02-24T09:48:20.053Z,63.16
2018-02-24T09:49:20.031Z,63.35
2018-02-24T09:50:20.010Z,64.01
2018-02-24T09:51:19.996Z,63.92
2018-02-24T09:52:19.980Z,63.64
2018-02-24T09:53:20.063Z,63.26
2018-02-24T09:54:19.958Z,64.01
2018-02-24T09:55:19.940Z,64.01
2018-02-24T09:56:19.928Z,64.01
2018-02-24T09:57:19.900Z,64.01
2018-02-24T09:58:19.890Z,64.96
2018-02-24T09:59:19.886Z,64.39
2018-02-24T10:00:19.858Z,64.48
2018-02-24T10:01:19.834Z,64.77
2018-02-24T10:02:19.829Z,63.82
2018-02-24T10:03:19.802Z,63.07
2018-02-24T10:04:19.530Z,63.26
2018-02-24T10:05:19.779Z,62.88
2018-02-24T10:06:19.756Z,62.97
2018-02-24T10:07:19.738Z,62.31
2018-02-24T10:08:19.719Z,60.99
2018-02-24T10:09:19.712Z,60.7
2018-02-24T10:10:19.707Z,60.33
2018-02-24T10:11:19.734Z,60.61
2018-02-24T10:12:19.655Z,60.61
2018-02-24T10:13:19.652Z,60.52
2018-02-24T10:14:19.625Z,59.98
2018-02-24T10:15:19.354Z,60.74
2018-02-24T10:16:19.592Z,60.45
2018-02-24T10:17:19.577Z,59.6
2018-02-24T10:18:19.560Z,59.6
2018-02-24T10:19:19.550Z,60.36
2018-02-24T10:20:19.544Z,60.45
2018-02-24T10:21:19.513Z,60.64
2018-02-24T10:22:19.506Z,60.64
2018-02-24T10:23:19.485Z,59.88
2018-02-24T10:24:19.477Z,59.6
2018-02-24T10:25:19.461Z,59.69
2018-02-24T10:26:19.188Z,60.64
2018-02-24T10:27:19.425Z,60.36
2018-02-24T10:28:19.403Z,60.93
2018-02-24T10:29:19.404Z,60.93
2018-02-24T10:30:19.379Z,60.83
2018-02-24T10:31:19.369Z,60.45
2018-02-24T10:32:19.348Z,60.36
2018-02-24T10:33:19.075Z,60.55
2018-02-24T10:34:19.314Z,60.55
2018-02-24T10:35:19.299Z,59.41
2018-02-24T10:36:19.288Z,59.41
2018-02-24T10:37:19.283Z,59.03
2018-02-24T10:38:19.249Z,59.03
2018-02-24T10:39:19.244Z,58.75
2018-02-24T10:40:19.223Z,58.28
2018-02-24T10:41:18.953Z,57.33
2018-02-24T10:42:19.209Z,57.14
2018-02-24T10:43:19.172Z,58.09
2018-02-24T10:44:19.158Z,57.8
2018-02-24T10:45:19.142Z,58.37
2018-02-24T10:46:19.130Z,58.37
2018-02-24T10:47:19.112Z,58.28
2018-02-24T10:48:19.105Z,58.37
2018-02-24T10:49:19.080Z,58.62
2018-02-24T10:50:19.071Z,58.15
2018-02-24T10:51:19.062Z,57.49
2018-02-24T10:52:19.038Z,57.49
2018-02-24T10:53:19.017Z,57.04
2018-02-24T10:54:19.020Z,57.14
2018-02-24T10:55:18.989Z,56.54
2018-02-24T10:56:18.979Z,57.01
2018-02-24T10:57:18.957Z,56.35
2018-02-24T10:58:18.959Z,57.01
2018-02-24T10:59:18.932Z,57.01
2018-02-24T11:00:18.916Z,56.63
2018-02-24T11:01:18.906Z,57.3
2018-02-24T11:02:18.887Z,57.11
2018-02-24T11:03:18.870Z,56.54
2018-02-24T11:04:18.844Z,55.88
2018-02-24T11:05:18.578Z,55.88
2018-02-24T11:06:18.562Z,55.22
2018-02-24T11:07:18.814Z,54.11
2018-02-24T11:08:18.790Z,53.17
2018-02-24T11:09:18.510Z,53.45
2018-02-24T11:10:18.758Z,53.05
2018-02-24T11:11:18.751Z,53.17
2018-02-24T11:12:18.730Z,53.26
2018-02-24T11:13:18.704Z,53.17
2018-02-24T11:14:18.704Z,53.52
2018-02-24T11:15:18.416Z,52.67
2018-02-24T11:16:18.665Z,53.52
2018-02-24T11:17:18.650Z,53.23
2018-02-24T11:18:18.377Z,53.52
2018-02-24T11:19:18.617Z,52.57
2018-02-24T11:20:18.591Z,52.29
2018-02-24T11:21:18.582Z,52.19
2018-02-24T11:22:18.569Z,52.57
2018-02-24T11:23:18.290Z,52.38
2018-02-24T11:24:18.526Z,52.29
2018-02-24T11:25:18.511Z,52.19
2018-02-24T11:26:18.515Z,51.72
2018-02-24T11:27:18.484Z,52.29
2018-02-24T11:28:18.475Z,52.19
2018-02-24T11:29:18.454Z,52.19
2018-02-24T11:30:18.436Z,52.5
2018-02-24T11:31:18.460Z,52.5
2018-02-24T11:32:18.397Z,53.45
2018-02-24T11:33:18.132Z,53.07
2018-02-24T11:34:18.369Z,53.45
2018-02-24T11:35:18.412Z,53.45
2018-02-24T11:36:18.344Z,53.64
2018-02-24T11:37:18.318Z,53.64
2018-02-24T11:38:18.313Z,52.79
2018-02-24T11:39:18.287Z,52.79
2018-02-24T11:40:18.276Z,52.41
2018-02-24T11:41:18.263Z,52.31
2018-02-24T11:42:18.255Z,52.22
2018-02-24T11:43:18.233Z,52.22
2018-02-24T11:44:18.208Z,52.31
2018-02-24T11:45:18.194Z,52.12
2018-02-24T11:46:18.175Z,52.41
2018-02-24T11:47:18.159Z,52.22
2018-02-24T11:48:18.144Z,51.65
2018-02-24T11:49:18.128Z,51.75
2018-02-24T11:50:18.126Z,51.65
2018-02-24T11:51:18.097Z,51.75
2018-02-24T11:52:18.081Z,51.65
2018-02-24T11:53:17.808Z,52.5
2018-02-24T11:54:17.793Z,51.65
2018-02-24T11:55:18.062Z,52.41
2018-02-24T11:56:18.024Z,51.84
2018-02-24T11:57:18.004Z,52.22
2018-02-24T11:58:17.996Z,52.22
2018-02-24T11:59:17.972Z,52.31
2018-02-24T12:00:17.969Z,52.69
2018-02-24T12:01:17.692Z,52.79
2018-02-24T12:02:18.191Z,53.17
2018-02-24T12:03:17.925Z,53.45
2018-02-24T12:04:17.907Z,53.36
2018-02-24T12:05:17.896Z,53.45
2018-02-24T12:06:17.862Z,53.45
2018-02-24T12:07:17.847Z,52.69
2018-02-24T12:08:17.837Z,52.98
2018-02-24T12:09:17.821Z,52.69
2018-02-24T12:10:17.863Z,52.41
2018-02-24T12:11:17.798Z,53.45
2018-02-24T12:12:17.783Z,53.64
2018-02-24T12:13:17.763Z,53.07
2018-02-24T12:14:17.739Z,52.98
2018-02-24T12:15:17.732Z,53.36
2018-02-24T12:16:17.460Z,53.26
2018-02-24T12:17:17.691Z,53.45
2018-02-24T12:18:17.674Z,53.17
2018-02-24T12:19:17.746Z,52.88
2018-02-24T12:20:17.655Z,53.55
2018-02-24T12:21:17.627Z,53.55
2018-02-24T12:22:17.363Z,53.55
2018-02-24T12:23:17.595Z,53.17
2018-02-24T12:24:17.590Z,53.07
2018-02-24T12:25:17.566Z,52.69
2018-02-24T12:26:17.647Z,52.41
2018-02-24T12:27:17.535Z,52.41
2018-02-24T12:28:17.531Z,52.12
2018-02-24T12:29:17.501Z,51.75
2018-02-24T12:30:17.489Z,51.46
2018-02-24T12:31:17.480Z,51.75
2018-02-24T12:32:17.202Z,50.99
2018-02-24T12:33:17.698Z,50.9
2018-02-24T12:34:17.435Z,50.8
2018-02-24T12:35:17.409Z,50.23
2018-02-24T12:36:17.395Z,50.42
2018-02-24T12:37:17.392Z,50.33
2018-02-24T12:38:17.395Z,50.99
2018-02-24T12:39:17.345Z,51.28
2018-02-24T12:40:17.344Z,51.28
2018-02-24T12:41:17.322Z,51.43
2018-02-24T12:42:17.300Z,51.53
2018-02-24T12:43:17.284Z,52
2018-02-24T12:44:17.268Z,52.48
2018-02-24T12:45:17.253Z,52.1
2018-02-24T12:46:17.247Z,52.19
2018-02-24T12:47:17.224Z,52.19
2018-02-24T12:48:17.208Z,52.19
2018-02-24T12:49:17.189Z,52
2018-02-24T12:50:17.186Z,52.1
2018-02-24T12:51:17.177Z,52.19
2018-02-24T12:52:17.159Z,52.1
2018-02-24T12:53:17.141Z,50.96
2018-02-24T12:54:17.118Z,50.87
2018-02-24T12:55:17.098Z,50.87